Time;durP1;ratioP1;P1;durP2;ratioP2;P2;SDS_P1;SDS_P2;PMS_P1;PMS_P2;Temp;Humidity;BMP_temperature;BMP_pressure;BME280_temperature;BME280_humidity;BME280_pressure;Samples;Min_cycle;Max_cycle;Signal;HPM_P1;HPM_P2
2023/12/16 08:24:52;;;;;;;15.73;7.47;;;;;;;1.23;100.00;98993.53;2083992;28;20570;-69
2023/12/16 08:25:53;;;;;;;14.48;7.57;;;;;;;1.40;100.00;98994.91;2085939;28;20201;-69
2023/12/16 08:42:29;;;;;;;21.25;9.32;;;;;;;1.73;100.00;98998.44;2084634;28;21105;-69
2023/12/16 08:49:46;;;;;;;12.00;7.82;;;;;;;2.02;100.00;98968.31;2078754;28;20558;-59
2023/12/16 08:55:17;;;;;;;13.77;7.97;;;;;;;2.29;100.00;99016.25;2087461;28;20571;-59
2023/12/16 08:56:19;;;;;;;14.77;9.13;;;;;;;2.36;100.00;99023.34;2082556;28;20204;-60
2023/12/16 09:02:03;;;;;;;13.52;8.65;;;;;;;2.63;100.00;99031.72;2100457;27;20559;-57
2023/12/16 09:03:04;;;;;;;13.82;6.47;;;;;;;2.67;100.00;99037.00;2097772;28;20194;-59
2023/12/16 09:08:43;;;;;;;18.23;10.70;;;;;;;2.72;100.00;99031.97;2084166;28;20576;-59
2023/12/16 09:09:44;;;;;;;13.25;8.48;;;;;;;2.74;100.00;99025.13;2078800;28;20608;-60
2023/12/16 09:15:29;;;;;;;20.90;9.18;;;;;;;2.72;100.00;99021.66;2084030;27;20545;-60
2023/12/16 09:16:30;;;;;;;14.57;8.27;;;;;;;2.61;100.00;99035.13;2080452;28;20209;-60
2023/12/16 09:17:32;;;;;;;13.57;7.75;;;;;;;2.79;100.00;99031.25;2078682;28;20209;-60
2023/12/16 09:22:02;;;;;;;11.90;6.40;;;;;;;3.29;100.00;99043.66;2083151;28;20569;-57
2023/12/16 09:23:04;;;;;;;12.65;8.15;;;;;;;3.40;100.00;99041.28;2082397;28;20196;-60
2023/12/16 09:24:05;;;;;;;10.52;6.40;;;;;;;3.46;100.00;99056.91;2082818;28;20254;-60
2023/12/16 09:29:14;;;;;;;13.05;6.80;;;;;;;3.50;100.00;99043.22;2085769;28;20578;-60
2023/12/16 09:30:16;;;;;;;11.32;6.38;;;;;;;3.68;100.00;99047.06;2073246;28;20236;-60
2023/12/16 09:31:18;;;;;;;11.80;6.70;;;;;;;3.63;100.00;99057.31;2070248;28;20868;-60
2023/12/16 09:32:19;;;;;;;10.88;6.53;;;;;;;3.52;99.40;99054.47;2072342;28;20752;-60
2023/12/16 09:33:23;;;;;;;15.00;6.65;;;;;;;3.66;99.43;99059.94;2072744;28;20202;-60
2023/12/16 09:37:21;;;;;;;9.55;5.80;;;;;;;3.89;98.75;99049.22;2086348;28;20571;-60
2023/12/16 09:38:23;;;;;;;15.02;7.55;;;;;;;3.92;98.65;99049.28;2089474;28;20227;-60
2023/12/16 09:39:24;;;;;;;22.48;12.02;;;;;;;3.87;98.66;99056.97;2088965;28;20196;-60
2023/12/16 09:40:26;;;;;;;32.72;12.20;;;;;;;3.81;97.90;99053.34;2063560;28;20245;-60
2023/12/16 09:44:00;;;;;;;14.60;6.63;;;;;;;3.89;98.10;99052.66;2090274;28;20569;-60
2023/12/16 09:45:02;;;;;;;14.63;7.13;;;;;;;3.90;98.00;99058.72;2084425;28;20215;-60
2023/12/16 09:50:56;;;;;;;11.52;6.35;;;;;;;3.92;100.00;99049.28;2098374;27;20566;-60
2023/12/16 09:51:58;;;;;;;9.68;6.45;;;;;;;3.95;99.79;99045.88;2098942;28;20248;-60
2023/12/16 09:52:59;;;;;;;12.00;5.65;;;;;;;3.90;99.51;99051.84;2099738;28;20372;-60
2023/12/16 09:59:08;;;;;;;11.57;5.70;;;;;;;4.04;99.61;99062.47;2084324;28;20663;-60
2023/12/16 10:00:12;;;;;;;11.20;5.95;;;;;;;3.98;98.20;99057.16;2072354;28;20255;-60
2023/12/16 10:01:17;;;;;;;12.05;6.40;;;;;;;3.96;98.66;99057.97;2066092;28;20260;-60
2023/12/16 10:07:25;;;;;;;11.27;6.55;;;;;;;3.97;99.56;99047.66;2083946;28;20588;-59
2023/12/16 10:08:26;;;;;;;13.40;6.03;;;;;;;4.08;98.91;99059.09;2079821;28;20198;-59
2023/12/16 10:09:28;;;;;;;12.63;5.68;;;;;;;4.18;98.80;99054.13;2079191;28;20193;-58
2023/12/16 10:15:37;;;;;;;11.30;5.78;;;;;;;3.98;96.99;99051.13;2091459;27;20554;-59
2023/12/16 10:16:39;;;;;;;11.38;5.90;;;;;;;4.06;97.13;99053.03;2090371;28;20312;-59
2023/12/16 10:17:43;;;;;;;8.27;5.50;;;;;;;4.19;97.23;99056.72;2081853;28;20196;-59
2023/12/16 10:18:48;;;;;;;14.63;5.75;;;;;;;4.19;97.09;99053.25;2073004;28;20201;-60
2023/12/16 10:23:02;;;;;;;9.48;4.82;;;;;;;4.41;95.64;99041.59;2100221;27;20530;-58
2023/12/16 10:24:04;;;;;;;10.07;4.55;;;;;;;4.50;95.27;99046.06;2096324;28;20620;-58
2023/12/16 10:25:06;;;;;;;8.00;4.03;;;;;;;4.55;94.54;99029.78;2085148;28;20231;-59
2023/12/16 10:26:08;;;;;;;8.55;4.97;;;;;;;4.50;93.69;99040.91;2081824;28;20292;-59
2023/12/16 10:27:10;;;;;;;10.55;5.10;;;;;;;4.65;94.28;99045.47;2081623;28;20203;-59
2023/12/16 10:28:11;;;;;;;10.60;4.72;;;;;;;4.72;94.09;99022.31;2082480;28;20201;-59
2023/12/16 10:29:13;;;;;;;10.38;5.13;;;;;;;5.01;93.87;99039.16;2081920;28;20204;-59
2023/12/16 10:30:14;;;;;;;9.05;4.88;;;;;;;4.89;92.85;99040.69;2072891;28;20625;-59
2023/12/16 10:31:18;;;;;;;14.43;4.60;;;;;;;4.86;93.13;99040.66;2079812;28;20683;-59
2023/12/16 10:32:20;;;;;;;9.20;5.30;;;;;;;4.98;93.08;99041.72;2081257;28;20272;-59
2023/12/16 10:33:22;;;;;;;12.02;5.20;;;;;;;5.09;91.86;99036.69;2073634;28;20335;-59
2023/12/16 10:34:28;;;;;;;9.02;6.20;;;;;;;5.13;92.55;99035.88;2073815;28;20209;-59
2023/12/16 10:35:30;;;;;;;8.02;4.70;;;;;;;5.35;92.90;99040.53;2082611;28;20225;-60
2023/12/16 10:36:32;;;;;;;9.48;5.05;;;;;;;5.49;92.43;99039.88;2082060;28;20560;-59
2023/12/16 10:37:36;;;;;;;7.82;5.60;;;;;;;5.58;91.69;99029.63;2083304;28;20193;-59
2023/12/16 10:38:38;;;;;;;11.52;5.70;;;;;;;5.65;89.63;99033.16;2082592;28;20197;-60
2023/12/16 10:39:40;;;;;;;13.85;4.90;;;;;;;5.58;89.45;99027.03;2081220;28;20205;-59
2023/12/16 10:40:42;;;;;;;17.30;6.40;;;;;;;5.74;89.27;99030.69;2083374;28;20243;-59
2023/12/16 10:41:43;;;;;;;8.60;5.05;;;;;;;6.01;88.46;99039.69;2082438;28;20675;-60
2023/12/16 10:42:45;;;;;;;7.28;4.78;;;;;;;6.25;87.23;99033.03;2081237;28;20229;-60
2023/12/16 10:43:46;;;;;;;8.32;4.85;;;;;;;6.18;86.93;99032.09;2082277;28;20197;-60
2023/12/16 10:44:49;;;;;;;8.52;3.92;;;;;;;6.29;86.18;99029.63;2078260;28;20221;-59
2023/12/16 10:45:51;;;;;;;8.60;4.07;;;;;;;6.76;85.24;99026.63;2079581;28;20212;-60
2023/12/16 10:46:54;;;;;;;11.88;3.70;;;;;;;6.84;82.40;99017.19;2080348;28;20232;-60
2023/12/16 10:48:00;;;;;;;14.75;3.50;;;;;;;6.74;82.18;99019.66;2083205;28;20220;-60
2023/12/16 10:49:02;;;;;;;6.40;3.35;;;;;;;6.83;82.46;99018.03;2081570;28;20204;-60
2023/12/16 10:50:06;;;;;;;8.65;2.90;;;;;;;6.96;80.48;99018.13;2082393;28;20281;-60
2023/12/16 10:51:10;;;;;;;9.07;3.33;;;;;;;6.92;80.05;99005.97;2081966;28;20197;-59
2023/12/16 10:52:13;;;;;;;7.32;2.70;;;;;;;6.90;81.06;98999.91;2089574;28;20184;-60
2023/12/16 10:53:24;;;;;;;5.90;3.08;;;;;;;6.91;81.66;99010.28;2089279;28;20235;-60
2023/12/16 10:54:32;;;;;;;6.82;2.90;;;;;;;7.12;79.34;99013.91;2081748;28;20198;-61
2023/12/16 10:55:42;;;;;;;9.23;3.05;;;;;;;7.03;79.43;99007.78;2081724;28;20228;-60
2023/12/16 10:56:57;;;;;;;5.70;2.92;;;;;;;7.35;79.39;99014.94;2082603;28;20228;-60
2023/12/16 10:58:09;;;;;;;9.43;3.35;;;;;;;7.47;79.18;99010.66;2080695;28;20653;-69
2023/12/16 10:59:18;;;;;;;6.15;2.75;;;;;;;7.36;78.85;99013.19;2080964;28;20196;-69
2023/12/16 11:00:23;;;;;;;6.35;3.15;;;;;;;7.49;79.17;99014.13;2081872;28;20232;-69
2023/12/16 11:01:29;;;;;;;9.10;3.05;;;;;;;7.44;79.86;99016.72;2082040;28;20201;-69
2023/12/16 11:02:32;;;;;;;7.80;2.97;;;;;;;7.84;80.63;98997.81;2081486;28;20266;-68
2023/12/16 11:03:41;;;;;;;9.90;4.38;;;;;;;7.80;79.66;99003.88;2080364;28;20247;-69
2023/12/16 11:04:46;;;;;;;10.32;3.13;;;;;;;8.15;79.11;99011.81;2081003;28;20253;-68
2023/12/16 11:05:56;;;;;;;6.43;2.83;;;;;;;7.72;79.67;99009.06;2081351;28;20194;-68
2023/12/16 11:07:09;;;;;;;6.07;3.10;;;;;;;8.04;78.81;99007.41;2081601;28;20288;-68
2023/12/16 11:08:12;;;;;;;7.63;3.47;;;;;;;8.08;77.78;99004.00;2081771;28;20197;-68
2023/12/16 11:09:15;;;;;;;15.73;3.85;;;;;;;8.03;76.86;99003.09;2089501;28;20283;-68
2023/12/16 11:10:18;;;;;;;8.32;3.35;;;;;;;8.18;77.15;99010.94;2090180;28;20224;-68
2023/12/16 11:11:20;;;;;;;8.57;3.30;;;;;;;8.30;76.84;99010.09;2081942;28;20193;-69
2023/12/16 11:12:22;;;;;;;6.53;4.40;;;;;;;8.43;76.22;99003.19;2081374;28;20208;-69
2023/12/16 11:13:24;;;;;;;6.88;3.55;;;;;;;8.63;75.97;99000.63;2081650;28;20194;-68
2023/12/16 11:14:27;;;;;;;6.63;3.63;;;;;;;8.73;75.32;98999.75;2080184;28;20203;-67
2023/12/16 11:15:34;;;;;;;18.05;3.80;;;;;;;8.46;75.46;99004.09;2081393;28;20196;-68
2023/12/16 11:16:55;;;;;;;12.23;3.63;;;;;;;8.65;74.71;99001.50;2079704;28;20193;-68
2023/12/16 11:18:04;;;;;;;14.13;3.80;;;;;;;8.74;74.39;99006.72;2082947;28;20209;-69
2023/12/16 11:19:08;;;;;;;6.85;3.20;;;;;;;8.90;74.70;99007.59;2081694;28;20236;-68
2023/12/16 11:20:16;;;;;;;9.07;3.50;;;;;;;8.49;73.93;99005.81;2080592;28;20731;-68
2023/12/16 11:21:20;;;;;;;7.88;3.20;;;;;;;8.57;74.76;99006.72;2080740;28;20201;-68
2023/12/16 11:22:23;;;;;;;8.95;3.70;;;;;;;8.68;75.47;99001.50;2082251;28;20332;-68
2023/12/16 11:23:28;;;;;;;6.90;3.22;;;;;;;8.58;75.07;99005.88;2081611;28;20675;-68
2023/12/16 11:24:43;;;;;;;6.60;3.50;;;;;;;8.70;74.55;99009.31;2080246;28;20419;-67
2023/12/16 11:25:47;;;;;;;12.25;4.05;;;;;;;9.05;73.73;99003.25;2085201;28;20434;-68
2023/12/16 11:26:53;;;;;;;9.18;3.92;;;;;;;9.07;73.88;99012.78;2078724;28;20747;-68
2023/12/16 11:27:56;;;;;;;12.07;3.80;;;;;;;8.93;74.18;98997.16;2088769;28;20270;-68
2023/12/16 11:28:57;;;;;;;10.50;3.50;;;;;;;8.52;74.93;99003.25;2081572;28;20215;-69
2023/12/16 11:29:59;;;;;;;12.50;4.47;;;;;;;8.54;74.94;99003.25;2080389;28;20224;-68
2023/12/16 11:31:03;;;;;;;10.57;3.53;;;;;;;8.65;74.42;98986.75;2079923;28;20197;-68
2023/12/16 11:32:04;;;;;;;12.77;3.80;;;;;;;8.68;74.76;98996.28;2078209;28;20193;-67
2023/12/16 11:33:06;;;;;;;11.98;3.80;;;;;;;8.73;73.10;98983.28;2078366;28;20212;-68
2023/12/16 11:34:08;;;;;;;9.65;3.53;;;;;;;8.60;73.09;98985.88;2076959;28;20197;-68
2023/12/16 11:35:10;;;;;;;9.60;4.65;;;;;;;8.21;73.84;98987.53;2074588;28;20739;-68
2023/12/16 11:36:14;;;;;;;8.95;3.65;;;;;;;8.26;74.34;98980.59;2072787;28;20198;-68
2023/12/16 11:37:41;;;;;;;13.15;3.78;;;;;;;8.91;73.87;98996.31;2074833;28;20193;-68
2023/12/16 11:38:46;;;;;;;13.23;3.65;;;;;;;9.17;72.99;98994.53;2075662;28;20197;-68
2023/12/16 11:39:49;;;;;;;12.90;4.15;;;;;;;9.18;72.28;98991.94;2075290;28;20222;-68
2023/12/16 11:40:52;;;;;;;9.88;3.85;;;;;;;9.06;71.99;98997.16;2076412;28;20313;-68
2023/12/16 11:41:54;;;;;;;19.23;4.10;;;;;;;9.21;72.42;98997.13;2074846;28;20232;-68
2023/12/16 11:43:02;;;;;;;12.40;3.53;;;;;;;9.47;70.45;98994.47;2075787;28;20198;-69
2023/12/16 11:44:04;;;;;;;17.30;4.90;;;;;;;10.18;69.52;98988.06;2073775;28;20201;-69
2023/12/16 11:45:06;;;;;;;8.50;3.65;;;;;;;10.22;69.13;98988.91;2077803;28;20278;-69
2023/12/16 11:46:07;;;;;;;12.73;3.75;;;;;;;10.67;67.83;98986.06;2073659;28;20640;-69
2023/12/16 11:47:17;;;;;;;11.90;3.95;;;;;;;10.80;67.12;98978.97;2077650;28;20219;-68
2023/12/16 11:48:19;;;;;;;13.90;3.97;;;;;;;11.13;68.12;98990.88;2074324;28;20209;-68
2023/12/16 11:49:20;;;;;;;12.70;4.18;;;;;;;10.94;64.99;98992.78;2072569;28;20201;-68
2023/12/16 11:50:22;;;;;;;29.08;4.75;;;;;;;10.82;64.95;98982.44;2072949;28;20228;-69
2023/12/16 11:51:25;;;;;;;18.38;4.82;;;;;;;11.31;65.67;98991.56;2074115;28;20288;-69
2023/12/16 11:52:27;;;;;;;17.17;4.25;;;;;;;11.23;66.26;98992.50;2075106;28;20197;-68
2023/12/16 11:53:30;;;;;;;14.70;4.15;;;;;;;11.38;66.57;98996.72;2074633;28;20285;-68
2023/12/16 11:54:32;;;;;;;12.43;3.70;;;;;;;11.53;66.29;98995.69;2074258;28;20714;-68
2023/12/16 11:55:34;;;;;;;19.77;4.00;;;;;;;11.19;65.22;99001.28;2077134;28;21000;-68
2023/12/16 11:56:36;;;;;;;10.98;3.10;;;;;;;10.76;66.47;98999.03;2076866;28;20290;-69
2023/12/16 11:57:37;;;;;;;8.48;3.35;;;;;;;10.81;66.02;98993.78;2074857;28;20205;-68
2023/12/16 11:58:38;;;;;;;12.43;3.15;;;;;;;10.75;65.72;98994.69;2073145;28;20209;-68
2023/12/16 11:59:40;;;;;;;11.52;3.22;;;;;;;11.77;63.93;98989.31;2074481;28;20732;-68
2023/12/16 12:00:41;;;;;;;13.32;3.20;;;;;;;12.26;61.82;98989.56;2077602;28;20204;-68
2023/12/16 12:01:43;;;;;;;8.18;2.60;;;;;;;12.56;60.90;98990.88;2076968;28;20204;-68
2023/12/16 12:02:47;;;;;;;15.30;3.42;;;;;;;12.34;59.16;98992.97;2075570;28;20280;-69
2023/12/16 12:03:49;;;;;;;9.77;3.10;;;;;;;13.00;58.63;98988.44;2076795;28;20313;-68
2023/12/16 12:04:50;;;;;;;10.82;2.78;;;;;;;13.10;58.79;98994.38;2074446;28;20214;-68
2023/12/16 12:05:52;;;;;;;12.82;2.95;;;;;;;13.37;57.00;98972.06;2074789;28;20701;-69
2023/12/16 12:06:54;;;;;;;18.88;2.80;;;;;;;12.94;57.63;98990.28;2075745;28;20274;-69
2023/12/16 12:07:56;;;;;;;7.95;2.22;;;;;;;13.30;57.23;98983.50;2079748;28;20341;-68
2023/12/16 12:08:57;;;;;;;13.93;2.85;;;;;;;13.70;55.98;98977.53;2079840;28;20200;-69
2023/12/16 12:09:59;;;;;;;8.75;2.70;;;;;;;13.73;56.64;98981.00;2059872;28;20222;-69
2023/12/16 12:11:05;;;;;;;12.60;3.40;;;;;;;14.56;55.95;98965.16;2075651;28;20284;-69
2023/12/16 12:12:07;;;;;;;14.93;3.20;;;;;;;14.25;54.71;98981.66;2073664;28;20200;-69
2023/12/16 12:13:08;;;;;;;10.27;3.60;;;;;;;14.59;53.99;98968.59;2075882;28;20257;-69
2023/12/16 12:14:09;;;;;;;15.43;3.72;;;;;;;15.09;53.32;98965.59;2076817;28;20208;-70
2023/12/16 12:15:11;;;;;;;17.60;3.42;;;;;;;15.02;52.84;98975.44;2073898;28;20228;-69
2023/12/16 12:16:13;;;;;;;10.93;3.28;;;;;;;14.18;52.97;98959.88;2074819;28;20224;-69
2023/12/16 12:17:15;;;;;;;17.48;3.40;;;;;;;14.07;53.55;98977.66;2074743;28;20204;-69
2023/12/16 12:18:17;;;;;;;13.10;2.95;;;;;;;14.00;52.33;98961.16;2076132;28;20236;-69
2023/12/16 12:19:19;;;;;;;12.10;2.80;;;;;;;14.17;54.76;98968.66;2075797;28;20197;-69
2023/12/16 12:20:20;;;;;;;11.00;3.60;;;;;;;13.20;54.17;98960.97;2075313;28;20228;-69
2023/12/16 12:21:22;;;;;;;9.68;2.97;;;;;;;13.27;54.30;98961.72;2075609;28;20292;-70
2023/12/16 12:22:23;;;;;;;11.40;2.67;;;;;;;12.76;54.64;98954.75;2072148;28;20287;-70
2023/12/16 12:23:25;;;;;;;12.90;3.08;;;;;;;12.79;55.52;98954.72;2072990;28;20241;-71
2023/12/16 12:24:26;;;;;;;10.35;2.97;;;;;;;13.09;54.01;98945.44;2075255;28;21230;-72
2023/12/16 12:25:28;;;;;;;9.77;2.55;;;;;;;12.83;54.10;98946.75;2075532;28;20224;-71
2023/12/16 12:26:29;;;;;;;11.40;2.95;;;;;;;13.00;54.41;98953.47;2077825;28;20197;-72
2023/12/16 12:27:37;;;;;;;13.35;3.05;;;;;;;13.75;55.00;98942.44;2074948;28;20247;-70
2023/12/16 12:28:54;;;;;;;16.67;3.53;;;;;;;14.26;53.78;98942.19;2082538;28;20618;-70
2023/12/16 12:30:00;;;;;;;8.55;3.15;;;;;;;14.17;53.05;98940.63;2081123;28;20228;-70
2023/12/16 12:31:02;;;;;;;15.70;3.00;;;;;;;13.94;53.38;98937.66;2077244;28;20709;-71
2023/12/16 12:32:06;;;;;;;11.38;3.00;;;;;;;13.55;52.96;98941.94;2076405;28;20205;-71
2023/12/16 12:33:08;;;;;;;12.35;2.97;;;;;;;13.44;54.58;98935.19;2076495;28;20809;-70
2023/12/16 12:34:24;;;;;;;7.72;2.92;;;;;;;13.39;54.35;98938.78;2076883;28;20221;-70
2023/12/16 12:35:27;;;;;;;9.73;3.05;;;;;;;14.79;53.88;98933.94;2077622;28;20216;-70
2023/12/16 12:36:29;;;;;;;9.30;2.72;;;;;;;14.59;51.64;98928.25;2080551;28;20193;-70
2023/12/16 12:37:44;;;;;;;10.23;2.50;;;;;;;15.07;52.18;98930.59;2080547;28;20204;-71
2023/12/16 12:38:52;;;;;;;5.88;2.53;;;;;;;14.64;50.69;98937.81;2075383;28;20208;-70
2023/12/16 12:39:56;;;;;;;9.70;3.45;;;;;;;14.21;50.51;98925.69;2075356;28;20221;-70
2023/12/16 12:41:06;;;;;;;11.15;2.97;;;;;;;13.33;53.07;98932.75;2076867;28;20644;-69
2023/12/16 12:42:08;;;;;;;7.53;2.42;;;;;;;12.84;54.62;98932.75;2074773;28;20212;-69
2023/12/16 12:43:09;;;;;;;11.30;2.75;;;;;;;11.31;54.58;98927.03;2074942;28;20204;-68
2023/12/16 12:44:11;;;;;;;8.75;3.13;;;;;;;12.04;55.52;98923.56;2074645;28;20217;-69
2023/12/16 12:45:32;;;;;;;12.05;3.20;;;;;;;13.13;53.65;98925.25;2073819;28;20256;-69
2023/12/16 12:46:44;;;;;;;12.43;2.40;;;;;;;11.79;53.92;98923.84;2076277;28;20205;-69
2023/12/16 12:47:45;;;;;;;7.43;2.55;;;;;;;11.86;55.97;98924.63;2075182;28;20285;-69
2023/12/16 12:48:55;;;;;;;10.70;3.47;;;;;;;12.92;54.65;98923.91;2076994;28;20244;-69
2023/12/16 12:49:57;;;;;;;8.18;2.78;;;;;;;13.66;54.11;98915.50;2073579;28;20586;-69
2023/12/16 12:51:07;;;;;;;9.85;3.35;;;;;;;14.08;53.54;98922.47;2073416;28;20707;-69
2023/12/16 12:52:08;;;;;;;9.85;3.50;;;;;;;14.41;53.43;98912.06;2074686;28;20205;-61
2023/12/16 12:53:20;;;;;;;7.97;2.65;;;;;;;14.53;52.07;98916.16;2076229;28;20301;-61
2023/12/16 12:54:26;;;;;;;11.07;2.55;;;;;;;14.70;50.56;98910.50;2074724;28;20667;-61
2023/12/16 12:55:27;;;;;;;9.77;2.50;;;;;;;14.30;50.42;98903.56;2073134;28;20218;-61
2023/12/16 12:56:29;;;;;;;9.90;2.33;;;;;;;14.83;49.72;98909.28;2075873;28;20246;-61
2023/12/16 12:57:31;;;;;;;7.85;3.10;;;;;;;14.71;48.71;98900.84;2075787;28;20209;-61
2023/12/16 12:58:34;;;;;;;13.27;4.30;;;;;;;12.24;52.44;98899.69;2071792;28;20202;-61
2023/12/16 12:59:36;;;;;;;11.20;4.40;;;;;;;10.96;56.29;98899.53;2072495;28;20434;-61
2023/12/16 13:01:06;;;;;;;14.25;3.40;;;;;;;11.72;56.79;98890.81;2074998;28;20704;-61
2023/12/16 13:02:08;;;;;;;15.07;4.00;;;;;;;12.43;56.17;98897.63;2074381;28;20688;-61
2023/12/16 13:03:10;;;;;;;10.75;2.90;;;;;;;13.30;55.10;98903.94;2077207;28;20241;-62
2023/12/16 13:04:12;;;;;;;7.15;2.60;;;;;;;13.90;53.30;98897.44;2075695;28;20259;-62
2023/12/16 13:05:14;;;;;;;14.73;3.05;;;;;;;13.30;51.46;98894.31;2078168;28;20233;-61
2023/12/16 13:06:15;;;;;;;7.78;2.78;;;;;;;13.25;52.52;98898.78;2072010;28;20205;-62
2023/12/16 13:07:17;;;;;;;11.23;2.85;;;;;;;13.63;52.73;98901.56;2074933;28;20868;-62
2023/12/16 13:08:18;;;;;;;15.55;3.30;;;;;;;14.00;52.26;98898.13;2076017;28;20389;-61
2023/12/16 13:09:20;;;;;;;10.57;2.78;;;;;;;14.16;52.97;98890.75;2076092;28;20197;-61
2023/12/16 13:10:22;;;;;;;11.57;2.78;;;;;;;14.26;51.60;98891.38;2072303;28;20306;-61
2023/12/16 13:11:23;;;;;;;8.38;3.58;;;;;;;13.36;53.66;98882.84;2074805;28;20194;-61
2023/12/16 13:12:25;;;;;;;14.38;4.32;;;;;;;14.47;52.74;98887.38;2075408;28;20224;-62
2023/12/16 13:13:27;;;;;;;17.75;8.70;;;;;;;13.59;51.25;98884.16;2074565;28;20204;-62
2023/12/16 13:14:29;;;;;;;22.65;10.57;;;;;;;12.23;52.81;98877.00;2075117;28;20304;-61
2023/12/16 13:15:30;;;;;;;23.23;10.23;;;;;;;12.85;52.87;98883.78;2075615;28;20221;-62
2023/12/16 13:16:52;;;;;;;13.65;4.78;;;;;;;13.06;51.19;98885.16;2076007;28;20205;-62
2023/12/16 13:17:54;;;;;;;12.70;5.25;;;;;;;12.38;53.03;98886.38;2075771;28;20247;-61
2023/12/16 13:18:58;;;;;;;12.05;4.63;;;;;;;12.03;53.32;98885.16;2075613;28;20658;-61
2023/12/16 13:20:00;;;;;;;21.15;3.83;;;;;;;11.91;54.12;98886.19;2075099;28;20232;-61
2023/12/16 13:21:03;;;;;;;7.65;2.65;;;;;;;12.58;54.28;98886.00;2073656;28;20213;-61
2023/12/16 13:22:05;;;;;;;9.77;3.30;;;;;;;13.21;54.12;98884.00;2071289;28;20236;-69
2023/12/16 13:23:06;;;;;;;8.93;2.72;;;;;;;12.01;53.80;98886.91;2072533;28;20256;-70
2023/12/16 13:24:08;;;;;;;9.50;2.53;;;;;;;11.36;55.38;98878.16;2071661;28;20206;-69
2023/12/16 13:25:15;;;;;;;10.88;2.80;;;;;;;11.40;55.15;98884.22;2074419;28;20259;-69
2023/12/16 13:26:16;;;;;;;6.60;1.88;;;;;;;11.29;55.17;98876.50;2076925;28;20847;-69
2023/12/16 13:27:18;;;;;;;8.45;2.50;;;;;;;11.47;56.62;98877.19;2074589;28;20236;-69
2023/12/16 13:28:20;;;;;;;7.07;2.50;;;;;;;12.43;54.50;98875.78;2073348;28;20198;-69
2023/12/16 13:29:22;;;;;;;11.07;2.70;;;;;;;11.70;56.23;98874.25;2074828;28;20244;-69
2023/12/16 13:30:24;;;;;;;10.60;2.28;;;;;;;11.66;56.02;98862.09;2072844;28;20232;-69
2023/12/16 13:31:26;;;;;;;14.02;3.00;;;;;;;12.16;55.93;98860.50;2075065;28;20278;-70
2023/12/16 13:32:28;;;;;;;7.07;2.53;;;;;;;12.80;54.78;98860.28;2075161;28;20201;-71
2023/12/16 13:33:30;;;;;;;8.10;2.65;;;;;;;13.51;53.69;98861.56;2075623;28;20536;-71
2023/12/16 13:34:31;;;;;;;11.23;2.63;;;;;;;12.77;52.85;98857.72;2075286;28;20201;-71
2023/12/16 13:35:33;;;;;;;10.27;3.67;;;;;;;13.03;53.83;98856.38;2075331;28;20631;-71
2023/12/16 13:36:35;;;;;;;10.15;2.72;;;;;;;13.10;52.29;98855.34;2075685;28;20201;-70
2023/12/16 13:37:51;;;;;;;11.30;3.25;;;;;;;13.14;52.81;98856.16;2074909;28;20661;-69
2023/12/16 13:38:54;;;;;;;32.83;17.77;;;;;;;13.46;52.61;98852.03;2071289;28;20218;-69
2023/12/16 13:39:59;;;;;;;11.52;3.50;;;;;;;12.85;52.95;98858.47;2072575;28;20282;-70
2023/12/16 13:41:01;;;;;;;14.73;3.17;;;;;;;12.18;54.33;98852.63;2081153;28;20189;-69
2023/12/16 13:42:04;;;;;;;8.75;3.30;;;;;;;12.46;54.21;98860.88;2081157;28;20197;-69
2023/12/16 13:43:05;;;;;;;13.65;2.65;;;;;;;12.73;52.81;98862.19;2072830;28;20282;-70
2023/12/16 13:44:06;;;;;;;10.35;3.05;;;;;;;12.75;53.60;98867.38;2071510;28;20197;-71
2023/12/16 13:45:08;;;;;;;16.10;3.53;;;;;;;13.19;53.65;98862.16;2071482;28;20225;-70
2023/12/16 13:46:10;;;;;;;7.40;2.47;;;;;;;12.08;54.65;98865.84;2075511;28;20201;-62
2023/12/16 13:47:12;;;;;;;13.40;3.30;;;;;;;10.90;57.09;98863.00;2074755;28;20241;-61
2023/12/16 13:48:13;;;;;;;6.07;2.40;;;;;;;10.88;58.75;98875.22;2075732;28;20194;-61
2023/12/16 13:49:15;;;;;;;8.25;2.67;;;;;;;10.35;59.91;98872.19;2076772;28;20209;-61
2023/12/16 13:50:17;;;;;;;12.18;3.25;;;;;;;9.90;61.20;98857.75;2074088;28;20225;-61
2023/12/16 13:51:18;;;;;;;9.30;2.75;;;;;;;9.97;62.01;98874.22;2072722;28;20315;-60
2023/12/16 13:52:20;;;;;;;10.63;2.45;;;;;;;10.17;62.76;98870.59;2073158;28;20233;-70
2023/12/16 13:53:21;;;;;;;8.15;3.25;;;;;;;10.16;62.90;98881.91;2075527;28;20194;-71
2023/12/16 13:54:23;;;;;;;17.45;3.10;;;;;;;9.48;63.07;98886.69;2075036;28;20247;-72
2023/12/16 13:55:25;;;;;;;8.13;2.83;;;;;;;9.39;65.04;98888.44;2073613;28;20232;-70
2023/12/16 13:56:26;;;;;;;8.77;3.22;;;;;;;9.11;65.08;98884.19;2073002;28;20205;-70
2023/12/16 13:57:28;;;;;;;9.10;3.00;;;;;;;8.52;65.55;98872.16;2074412;28;20228;-68
2023/12/16 13:58:29;;;;;;;12.40;3.88;;;;;;;8.20;66.24;98873.84;2075176;28;20193;-67
2023/12/16 13:59:32;;;;;;;15.30;3.78;;;;;;;8.11;68.04;98872.16;2071538;28;20205;-68
2023/12/16 14:00:34;;;;;;;12.88;4.45;;;;;;;8.29;69.21;98875.59;2070884;28;20221;-68
2023/12/16 14:01:35;;;;;;;14.23;3.78;;;;;;;8.27;68.74;98872.16;2071365;28;20205;-68
2023/12/16 14:02:37;;;;;;;14.93;5.47;;;;;;;8.28;69.45;98868.69;2071378;28;20244;-68
2023/12/16 14:03:38;;;;;;;9.55;3.67;;;;;;;8.19;70.20;98864.34;2074666;28;20284;-67
2023/12/16 14:04:44;;;;;;;18.45;4.20;;;;;;;8.30;71.06;98872.13;2073461;28;20240;-67
2023/12/16 14:05:46;;;;;;;14.50;4.15;;;;;;;8.20;71.29;98866.03;2073131;28;20786;-68
2023/12/16 14:06:47;;;;;;;12.68;4.65;;;;;;;8.01;72.08;98867.78;2074441;28;20566;-68
2023/12/16 14:07:49;;;;;;;19.80;5.07;;;;;;;8.15;72.07;98867.78;2071156;28;20200;-60
2023/12/16 14:08:50;;;;;;;14.55;4.10;;;;;;;8.07;70.94;98867.78;2073657;28;20231;-60
2023/12/16 14:09:52;;;;;;;8.57;3.95;;;;;;;8.11;71.17;98866.06;2073512;28;20193;-67
2023/12/16 14:10:53;;;;;;;13.32;4.28;;;;;;;8.13;71.35;98866.94;2074523;28;20289;-67
2023/12/16 14:11:55;;;;;;;22.77;5.00;;;;;;;7.78;71.86;98866.03;2075161;28;20283;-67
2023/12/16 14:12:56;;;;;;;14.43;4.65;;;;;;;7.53;72.64;98857.31;2072784;28;20288;-68
2023/12/16 14:13:58;;;;;;;9.73;3.70;;;;;;;7.48;74.27;98865.06;2071405;28;20198;-68
2023/12/16 14:14:59;;;;;;;14.00;4.70;;;;;;;7.19;73.92;98860.63;2073165;28;20229;-67
2023/12/16 14:16:01;;;;;;;13.02;4.82;;;;;;;7.22;75.23;98861.50;2075081;28;20201;-68
2023/12/16 14:17:03;;;;;;;16.17;4.75;;;;;;;7.11;75.61;98866.66;2074087;28;20193;-67
2023/12/16 14:18:04;;;;;;;13.63;4.40;;;;;;;7.05;75.87;98857.13;2075619;28;20240;-67
2023/12/16 14:19:06;;;;;;;8.05;3.78;;;;;;;7.08;75.11;98861.44;2074717;28;20284;-68
2023/12/16 14:20:08;;;;;;;18.02;4.65;;;;;;;7.10;74.68;98854.53;2075912;28;20249;-68
2023/12/16 14:21:09;;;;;;;12.55;3.97;;;;;;;7.00;73.75;98851.88;2075655;28;20263;-67
2023/12/16 14:22:11;;;;;;;7.20;2.90;;;;;;;6.99;74.15;98857.06;2074216;28;20236;-67
2023/12/16 14:23:13;;;;;;;11.65;3.50;;;;;;;6.84;76.78;98860.47;2073367;28;20252;-68
2023/12/16 14:24:14;;;;;;;14.93;4.18;;;;;;;6.87;76.14;98863.09;2074195;28;20201;-67
2023/12/16 14:25:16;;;;;;;7.40;3.55;;;;;;;6.84;75.66;98852.66;2075729;28;20220;-67
2023/12/16 14:26:17;;;;;;;8.55;3.28;;;;;;;6.88;75.59;98857.00;2075569;28;20200;-67
2023/12/16 14:27:19;;;;;;;14.40;3.78;;;;;;;6.99;77.36;98857.94;2073984;28;20208;-67
2023/12/16 14:28:20;;;;;;;12.43;3.95;;;;;;;6.90;76.71;98844.91;2074975;28;20633;-67
2023/12/16 14:29:22;;;;;;;6.10;3.50;;;;;;;6.93;75.82;98854.44;2075040;28;20197;-67
2023/12/16 14:30:23;;;;;;;12.10;4.20;;;;;;;6.90;75.53;98857.03;2074485;28;20288;-67
2023/12/16 14:31:25;;;;;;;9.38;3.30;;;;;;;7.10;75.24;98864.94;2075238;28;20205;-67
2023/12/16 14:32:27;;;;;;;14.13;2.90;;;;;;;6.92;75.33;98856.19;2073484;28;20766;-67
2023/12/16 14:33:28;;;;;;;10.20;3.30;;;;;;;6.91;75.85;98853.56;2075772;28;20605;-67
2023/12/16 14:34:30;;;;;;;12.07;3.80;;;;;;;6.81;75.74;98856.13;2073345;28;20201;-68
2023/12/16 14:35:32;;;;;;;7.75;3.00;;;;;;;6.78;76.05;98857.81;2074100;28;20249;-67
2023/12/16 14:36:37;;;;;;;5.55;2.95;;;;;;;6.64;75.22;98853.44;2076730;28;20276;-67
2023/12/16 14:37:39;;;;;;;7.40;2.63;;;;;;;6.67;76.79;98856.03;2075630;28;20205;-67
2023/12/16 14:38:40;;;;;;;9.68;2.78;;;;;;;6.81;76.11;98845.72;2073303;28;20209;-68